createdAt,value
2022-12-31T00:00:09.611Z,99728.55
2022-12-31T00:02:36.348Z,99736.48
2022-12-31T00:05:03.078Z,99744.38
2022-12-31T00:07:29.459Z,99749.03
2022-12-31T00:09:55.882Z,99748.83
2022-12-31T00:12:22.289Z,99750.13
2022-12-31T00:14:48.743Z,99752.73
2022-12-31T00:17:15.165Z,99746.12
2022-12-31T00:19:41.566Z,99742.71
2022-12-31T00:22:08.008Z,99737.66
2022-12-31T00:24:35.805Z,99735.79
2022-12-31T00:27:02.277Z,99737.83
2022-12-31T00:29:28.763Z,99740.84
2022-12-31T00:31:58.067Z,99745.50
2022-12-31T00:34:24.596Z,99746.41
2022-12-31T00:36:51.030Z,99744.24
2022-12-31T00:39:17.389Z,99742.69
2022-12-31T00:41:44.230Z,99737.77
2022-12-31T00:44:14.104Z,99740.16
2022-12-31T00:49:07.219Z,99742.41
2022-12-31T00:51:33.762Z,99748.46
2022-12-31T00:54:00.434Z,99748.59
2022-12-31T00:56:30.014Z,99755.49
2022-12-31T00:58:56.877Z,99751.98
2022-12-31T01:01:31.964Z,99743.89
2022-12-31T01:04:04.440Z,99755.21
2022-12-31T01:06:31.090Z,99752.88
2022-12-31T01:08:57.644Z,99748.13
2022-12-31T01:11:29.100Z,99743.27
2022-12-31T01:14:01.160Z,99750.30
2022-12-31T01:16:37.515Z,99756.14
2022-12-31T01:19:06.697Z,99761.98
2022-12-31T01:21:34.749Z,99765.48
2022-12-31T01:24:01.314Z,99766.95
2022-12-31T01:26:28.620Z,99781.02
2022-12-31T01:28:55.345Z,99782.92
2022-12-31T01:31:23.322Z,99780.52
2022-12-31T01:33:51.159Z,99782.44
2022-12-31T01:36:25.654Z,99779.50
2022-12-31T01:38:54.155Z,99776.92
2022-12-31T01:41:23.249Z,99776.84
2022-12-31T01:43:58.819Z,99778.64
2022-12-31T01:46:41.851Z,99774.02
2022-12-31T01:49:20.532Z,99777.16
2022-12-31T01:51:52.810Z,99770.70
2022-12-31T01:54:22.386Z,99771.08
2022-12-31T01:56:51.465Z,99773.20
2022-12-31T01:59:20.670Z,99775.52
2022-12-31T02:01:48.783Z,99780.39
2022-12-31T02:04:16.244Z,99779.73
2022-12-31T02:07:04.055Z,99776.04
2022-12-31T02:09:32.302Z,99774.58
2022-12-31T02:11:58.994Z,99773.60
2022-12-31T02:14:34.576Z,99766.17
2022-12-31T02:17:32.481Z,99757.89
2022-12-31T02:20:19.065Z,99754.90
2022-12-31T02:23:10.084Z,99746.33
2022-12-31T02:25:58.543Z,99744.16
2022-12-31T02:28:43.613Z,99737.75
2022-12-31T02:31:18.836Z,99734.56
2022-12-31T02:33:54.705Z,99736.54
2022-12-31T02:36:25.450Z,99727.47
2022-12-31T02:38:52.688Z,99724.36
2022-12-31T02:41:38.854Z,99721.02
2022-12-31T02:44:26.507Z,99721.71
2022-12-31T02:47:27.265Z,99719.59
2022-12-31T02:50:14.920Z,99716.52
2022-12-31T02:53:00.102Z,99716.48
2022-12-31T02:55:44.685Z,99716.27
2022-12-31T02:58:57.677Z,99717.79
2022-12-31T03:01:48.574Z,99722.77
2022-12-31T03:04:36.101Z,99717.77
2022-12-31T03:07:06.351Z,99708.74
2022-12-31T03:09:34.059Z,99708.35
2022-12-31T03:12:20.384Z,99713.77
2022-12-31T03:14:46.961Z,99708.48
2022-12-31T03:17:13.861Z,99703.84
2022-12-31T03:19:58.808Z,99697.72
2022-12-31T03:22:28.449Z,99691.91
2022-12-31T03:25:35.912Z,99694.31
2022-12-31T03:28:04.774Z,99693.23
2022-12-31T03:30:32.770Z,99707.23
2022-12-31T03:32:59.480Z,99699.45
2022-12-31T03:35:28.168Z,99690.82
2022-12-31T03:37:54.764Z,99689.55
2022-12-31T03:40:23.653Z,99693.19
2022-12-31T03:42:50.091Z,99682.97
2022-12-31T03:45:16.989Z,99685.10
2022-12-31T03:47:43.717Z,99692.21
2022-12-31T03:50:11.925Z,99684.73
2022-12-31T03:52:39.385Z,99685.55
2022-12-31T03:55:07.028Z,99679.05
2022-12-31T03:57:34.187Z,99671.05
2022-12-31T04:00:00.637Z,99670.59
2022-12-31T04:02:29.348Z,99666.42
2022-12-31T04:04:56.274Z,99661.08
2022-12-31T04:07:23.001Z,99650.44
2022-12-31T04:09:49.441Z,99648.12
2022-12-31T04:12:16.000Z,99645.02
2022-12-31T04:14:42.413Z,99632.27
2022-12-31T04:17:09.045Z,99621.41
2022-12-31T04:19:35.588Z,99621.95
2022-12-31T04:22:02.106Z,99618.87
2022-12-31T04:24:28.679Z,99605.27
2022-12-31T04:26:55.163Z,99601.70
2022-12-31T04:29:21.758Z,99595.71
2022-12-31T04:31:48.261Z,99597.14
2022-12-31T04:34:15.098Z,99598.24
2022-12-31T04:36:41.513Z,99589.13
2022-12-31T04:39:08.487Z,99593.25
2022-12-31T04:41:35.012Z,99590.02
2022-12-31T04:44:01.471Z,99589.64
2022-12-31T04:46:30.450Z,99599.58
2022-12-31T04:48:57.370Z,99603.90
2022-12-31T04:51:24.916Z,99608.08
2022-12-31T04:53:52.053Z,99613.86
2022-12-31T04:56:18.742Z,99607.29
2022-12-31T04:58:45.269Z,99630.91
2022-12-31T05:01:12.720Z,99642.86
2022-12-31T05:03:39.578Z,99659.02
2022-12-31T05:06:08.981Z,99681.73
2022-12-31T05:08:36.121Z,99676.50
2022-12-31T05:11:02.834Z,99687.52
2022-12-31T05:13:33.348Z,99700.39
2022-12-31T05:16:00.844Z,99694.70
2022-12-31T05:18:27.942Z,99690.55
2022-12-31T05:20:54.536Z,99688.95
2022-12-31T05:23:20.989Z,99681.96
2022-12-31T05:25:48.480Z,99683.19
2022-12-31T05:28:16.023Z,99679.84
2022-12-31T05:30:43.652Z,99676.27
2022-12-31T05:33:10.204Z,99679.14
2022-12-31T05:35:37.135Z,99685.84
2022-12-31T05:38:03.555Z,99692.43
2022-12-31T05:40:29.999Z,99698.41
2022-12-31T05:42:56.373Z,99714.70
2022-12-31T05:45:30.067Z,99726.70
2022-12-31T05:47:57.305Z,99722.23
2022-12-31T05:50:23.727Z,99726.09
2022-12-31T05:52:50.173Z,99730.81
2022-12-31T05:55:16.636Z,99736.58
2022-12-31T05:57:43.044Z,99742.30
2022-12-31T06:00:10.499Z,99740.58
2022-12-31T06:02:36.921Z,99753.08
2022-12-31T06:05:03.552Z,99753.08
2022-12-31T06:07:30.023Z,99749.82
2022-12-31T06:09:56.543Z,99745.64
2022-12-31T06:12:22.948Z,99745.10
2022-12-31T06:14:49.453Z,99734.29
2022-12-31T06:17:15.852Z,99740.26
2022-12-31T06:19:42.303Z,99718.96
2022-12-31T06:22:08.929Z,99734.98
2022-12-31T06:24:35.316Z,99725.30
2022-12-31T06:27:01.774Z,99732.05
2022-12-31T06:29:28.149Z,99735.23
2022-12-31T06:31:54.562Z,99734.16
2022-12-31T06:34:20.970Z,99722.02
2022-12-31T06:36:47.392Z,99727.74
2022-12-31T06:39:13.849Z,99720.47
2022-12-31T06:41:40.335Z,99719.20
2022-12-31T06:44:06.863Z,99725.30
2022-12-31T06:46:33.473Z,99729.63
2022-12-31T06:48:59.886Z,99736.38
2022-12-31T06:51:26.425Z,99743.89
2022-12-31T06:53:52.977Z,99749.65
2022-12-31T06:56:26.620Z,99748.86
2022-12-31T06:58:56.447Z,99737.71
2022-12-31T07:01:44.451Z,99743.55
2022-12-31T07:04:14.002Z,99746.42
2022-12-31T07:06:44.135Z,99748.05
2022-12-31T07:09:29.164Z,99743.15
2022-12-31T07:12:24.680Z,99739.34
2022-12-31T07:15:02.204Z,99756.67
2022-12-31T07:17:53.405Z,99750.84
2022-12-31T07:20:20.328Z,99747.09
2022-12-31T07:22:47.332Z,99748.85
2022-12-31T07:25:15.900Z,99745.97
2022-12-31T07:28:04.420Z,99746.09
2022-12-31T07:30:42.711Z,99747.52
2022-12-31T07:33:32.289Z,99722.05
2022-12-31T07:36:26.790Z,99754.39
2022-12-31T07:39:01.433Z,99761.99
2022-12-31T07:41:59.004Z,99762.56
2022-12-31T07:44:39.176Z,99757.38
2022-12-31T07:47:14.773Z,99771.70
2022-12-31T07:49:43.108Z,99780.09
2022-12-31T07:52:09.946Z,99775.06
2022-12-31T07:54:36.337Z,99794.79
2022-12-31T07:57:02.949Z,99800.63
2022-12-31T07:59:40.188Z,99795.82
2022-12-31T08:02:31.453Z,99807.52
2022-12-31T08:05:22.964Z,99815.80
2022-12-31T08:08:03.497Z,99816.09
2022-12-31T08:11:05.293Z,99814.83
2022-12-31T08:13:32.389Z,99823.45
2022-12-31T08:16:00.238Z,99824.02
2022-12-31T08:18:26.944Z,99822.92
2022-12-31T08:21:25.280Z,99831.30
2022-12-31T08:24:39.332Z,99843.52
2022-12-31T08:27:20.531Z,99840.45
2022-12-31T08:30:12.373Z,99857.01
2022-12-31T08:32:47.920Z,99860.14
2022-12-31T08:35:49.952Z,99851.75
2022-12-31T08:38:30.781Z,99849.11
2022-12-31T08:41:21.136Z,99850.99
2022-12-31T08:44:25.328Z,99842.14
2022-12-31T08:47:34.140Z,99846.95
2022-12-31T08:50:04.048Z,99850.89
2022-12-31T08:52:30.727Z,99848.89
2022-12-31T08:54:57.476Z,99845.58
2022-12-31T08:57:23.819Z,99843.20
2022-12-31T09:00:08.973Z,99847.83
2022-12-31T09:02:47.868Z,99846.94
2022-12-31T09:05:20.896Z,99841.58
2022-12-31T09:08:08.589Z,99838.58
2022-12-31T09:10:57.611Z,99837.94
2022-12-31T09:13:36.155Z,99837.50
2022-12-31T09:16:18.210Z,99827.98
2022-12-31T09:18:44.729Z,99828.97
2022-12-31T09:21:14.854Z,99829.30
2022-12-31T09:23:42.099Z,99824.89
2022-12-31T09:26:14.480Z,99829.58
2022-12-31T09:29:04.145Z,99824.02
2022-12-31T09:31:40.177Z,99829.65
2022-12-31T09:34:20.429Z,99830.17
2022-12-31T09:36:55.647Z,99833.20
2022-12-31T09:39:40.976Z,99824.92
2022-12-31T09:42:19.657Z,99828.13
2022-12-31T09:45:04.789Z,99828.71
2022-12-31T09:48:08.984Z,99828.13
2022-12-31T09:51:06.609Z,99824.08
2022-12-31T09:53:48.097Z,99824.42
2022-12-31T09:56:27.203Z,99816.20
2022-12-31T09:58:56.636Z,99811.88
2022-12-31T10:01:57.437Z,99823.14
2022-12-31T10:04:42.655Z,99814.91
2022-12-31T10:07:09.034Z,99819.13
2022-12-31T10:10:12.639Z,99819.38
2022-12-31T10:12:57.915Z,99812.11
2022-12-31T10:15:49.705Z,99822.61
2022-12-31T10:18:57.748Z,99810.71
2022-12-31T10:21:26.734Z,99810.36
2022-12-31T10:24:30.302Z,99800.67
2022-12-31T10:26:59.482Z,99792.64
2022-12-31T10:29:25.851Z,99796.12
2022-12-31T10:32:31.818Z,99801.05
2022-12-31T10:35:15.200Z,99787.96
2022-12-31T10:37:50.655Z,99788.73
2022-12-31T10:40:50.054Z,99794.90
2022-12-31T10:44:07.727Z,99789.87
2022-12-31T10:47:00.951Z,99806.38
2022-12-31T10:49:57.742Z,99799.96
2022-12-31T10:52:46.010Z,99807.34
2022-12-31T10:55:43.453Z,99807.77
2022-12-31T10:58:32.717Z,99801.13
2022-12-31T11:01:08.969Z,99803.98
2022-12-31T11:04:06.598Z,99803.45
2022-12-31T11:07:03.465Z,99802.14
2022-12-31T11:09:53.385Z,99801.49
2022-12-31T11:12:39.935Z,99814.61
2022-12-31T11:15:33.930Z,99823.36
2022-12-31T11:18:23.242Z,99819.47
2022-12-31T11:21:27.738Z,99842.16
2022-12-31T11:24:37.981Z,99827.66
2022-12-31T11:27:24.500Z,99859.68
2022-12-31T11:30:18.026Z,99845.80
2022-12-31T11:32:53.696Z,99852.42
2022-12-31T11:35:46.140Z,99866.70
2022-12-31T11:38:29.950Z,99888.16
2022-12-31T11:41:22.877Z,99914.86
2022-12-31T11:44:28.872Z,99940.78
2022-12-31T11:47:33.182Z,99927.17
2022-12-31T11:50:36.855Z,99923.69
2022-12-31T11:53:25.684Z,99936.05
2022-12-31T11:56:10.857Z,99924.16
2022-12-31T11:58:37.498Z,99923.19
2022-12-31T12:01:25.379Z,99918.90
2022-12-31T12:03:51.975Z,99914.08
2022-12-31T12:06:24.885Z,99915.05
2022-12-31T12:08:51.667Z,99907.89
2022-12-31T12:11:23.927Z,99901.88
2022-12-31T12:13:50.463Z,99903.39
2022-12-31T12:16:19.308Z,99900.89
2022-12-31T12:18:49.326Z,99904.44
2022-12-31T12:21:22.845Z,99906.28
2022-12-31T12:24:24.879Z,99910.60
2022-12-31T12:26:52.263Z,99908.52
2022-12-31T12:29:23.980Z,99909.05
2022-12-31T12:31:59.057Z,99901.04
2022-12-31T12:34:35.355Z,99900.81
2022-12-31T12:37:02.120Z,99907.73
2022-12-31T12:39:33.906Z,99917.73
2022-12-31T12:42:13.828Z,99911.36
2022-12-31T12:44:41.909Z,99913.70
2022-12-31T12:47:15.230Z,99917.98
2022-12-31T12:49:45.984Z,99923.21
2022-12-31T12:52:29.433Z,99912.47
2022-12-31T12:55:14.594Z,99920.36
2022-12-31T12:57:40.909Z,99920.27
2022-12-31T13:00:18.497Z,99920.32
2022-12-31T13:03:22.095Z,99916.72
2022-12-31T13:06:01.580Z,99919.29
2022-12-31T13:08:59.824Z,99920.67
2022-12-31T13:12:11.270Z,99913.77
2022-12-31T13:15:09.065Z,99924.55
2022-12-31T13:18:01.961Z,99927.19
2022-12-31T13:20:57.154Z,99935.73
2022-12-31T13:23:42.976Z,99935.39
2022-12-31T13:26:24.950Z,99936.60
2022-12-31T13:28:52.681Z,99933.56
2022-12-31T13:31:24.249Z,99927.09
2022-12-31T13:33:58.497Z,99930.02
2022-12-31T13:36:28.754Z,99934.23
2022-12-31T13:38:59.320Z,99931.55
2022-12-31T13:41:28.723Z,99926.40
2022-12-31T13:44:29.359Z,99934.94
2022-12-31T13:47:21.804Z,99922.80
2022-12-31T13:50:17.387Z,99932.48
2022-12-31T13:52:55.038Z,99924.96
2022-12-31T13:55:32.158Z,99938.31
2022-12-31T13:58:32.801Z,99919.73
2022-12-31T14:01:15.778Z,99912.73
2022-12-31T14:03:57.034Z,99919.17
2022-12-31T14:06:45.743Z,99930.39
2022-12-31T14:09:22.243Z,99928.95
2022-12-31T14:12:00.156Z,99934.80
2022-12-31T14:14:49.850Z,99937.91
2022-12-31T14:17:23.440Z,99941.78
2022-12-31T14:20:06.081Z,99947.34
2022-12-31T14:22:42.973Z,99943.45
2022-12-31T14:25:22.891Z,99930.14
2022-12-31T14:27:52.721Z,99930.25
2022-12-31T14:30:25.785Z,99944.30
2022-12-31T14:33:05.146Z,99937.24
2022-12-31T14:35:40.178Z,99937.34
2022-12-31T14:38:19.430Z,99932.66
2022-12-31T14:41:04.789Z,99939.94
2022-12-31T14:44:00.276Z,99937.20
2022-12-31T14:46:59.552Z,99940.42
2022-12-31T14:49:36.859Z,99955.91
2022-12-31T14:52:21.687Z,99950.45
2022-12-31T14:55:10.064Z,99957.86
2022-12-31T14:58:09.573Z,99955.51
2022-12-31T15:00:31.880Z,99969.19
2022-12-31T15:03:07.612Z,99958.48
2022-12-31T15:05:36.716Z,99981.45
2022-12-31T15:08:17.061Z,99994.91
2022-12-31T15:11:02.716Z,100014.45
2022-12-31T15:13:40.888Z,100004.96
2022-12-31T15:16:26.351Z,100009.63
2022-12-31T15:19:19.310Z,100010.42
2022-12-31T15:22:09.884Z,100016.55
2022-12-31T15:24:43.287Z,100024.92
2022-12-31T15:27:43.910Z,100012.14
2022-12-31T15:30:55.754Z,100009.56
2022-12-31T15:33:30.830Z,100009.01
2022-12-31T15:35:58.227Z,100022.73
2022-12-31T15:38:33.706Z,100026.05
2022-12-31T15:41:01.077Z,100033.19
2022-12-31T15:43:56.896Z,100034.65
2022-12-31T15:46:28.263Z,100028.20
2022-12-31T15:49:04.990Z,100024.08
2022-12-31T15:51:41.254Z,100023.45
2022-12-31T15:54:23.866Z,100021.30
2022-12-31T15:56:53.280Z,100016.04
2022-12-31T15:59:21.729Z,100027.81
2022-12-31T16:01:48.648Z,100009.35
2022-12-31T16:04:17.986Z,100017.58
2022-12-31T16:06:50.649Z,100007.86
2022-12-31T16:09:22.666Z,100009.28
2022-12-31T16:11:49.341Z,100016.95
2022-12-31T16:14:22.158Z,100026.90
2022-12-31T16:16:57.862Z,100023.35
2022-12-31T16:19:30.237Z,100024.52
2022-12-31T16:21:58.214Z,100027.89
2022-12-31T16:24:35.194Z,100034.31
2022-12-31T16:27:13.639Z,100029.41
2022-12-31T16:29:52.240Z,100029.70
2022-12-31T16:32:22.078Z,100037.45
2022-12-31T16:34:48.568Z,100059.71
2022-12-31T16:37:21.451Z,100048.89
2022-12-31T16:39:57.209Z,100041.39
2022-12-31T16:42:25.703Z,100043.56
2022-12-31T16:44:54.111Z,100042.48
2022-12-31T16:47:24.517Z,100060.27
2022-12-31T16:50:03.999Z,100052.86
2022-12-31T16:52:35.533Z,100053.73
2022-12-31T16:55:08.225Z,100068.98
2022-12-31T16:57:35.017Z,100060.76
2022-12-31T17:00:06.204Z,100062.71
2022-12-31T17:02:44.775Z,100059.16
2022-12-31T17:05:18.280Z,100057.09
2022-12-31T17:07:44.690Z,100066.29
2022-12-31T17:10:37.489Z,100062.02
2022-12-31T17:13:29.799Z,100059.25
2022-12-31T17:15:57.956Z,100069.39
2022-12-31T17:18:28.646Z,100060.75
2022-12-31T17:20:55.532Z,100061.59
2022-12-31T17:23:34.343Z,100063.05
2022-12-31T17:26:07.915Z,100058.94
2022-12-31T17:28:55.239Z,100065.80
2022-12-31T17:31:40.904Z,100063.83
2022-12-31T17:34:13.322Z,100048.92
2022-12-31T17:37:19.148Z,100049.08
2022-12-31T17:39:50.696Z,100050.83
2022-12-31T17:42:28.157Z,100045.33
2022-12-31T17:44:58.661Z,100043.73
2022-12-31T17:47:33.669Z,100044.81
2022-12-31T17:50:05.589Z,100053.52
2022-12-31T17:52:32.116Z,100053.59
2022-12-31T17:54:58.657Z,100052.85
2022-12-31T17:57:27.688Z,100046.91
2022-12-31T17:59:54.349Z,100039.23
2022-12-31T18:02:20.924Z,100045.21
2022-12-31T18:04:47.471Z,100045.02
2022-12-31T18:07:14.188Z,100036.98
2022-12-31T18:09:40.715Z,100027.93
2022-12-31T18:12:07.564Z,100017.48
2022-12-31T18:14:34.173Z,100013.44
2022-12-31T18:17:00.939Z,100011.70
2022-12-31T18:20:03.043Z,100012.52
2022-12-31T18:22:17.108Z,100009.42
2022-12-31T18:24:44.234Z,100004.94
2022-12-31T18:27:18.645Z,100002.66
2022-12-31T18:29:45.565Z,100013.23
2022-12-31T18:32:33.835Z,99994.11
2022-12-31T18:35:00.377Z,99997.97
2022-12-31T18:37:28.866Z,99985.53
2022-12-31T18:39:55.383Z,99990.83
2022-12-31T18:42:25.480Z,99991.82
2022-12-31T18:44:51.887Z,99981.89
2022-12-31T18:47:23.304Z,99986.31
2022-12-31T18:49:50.332Z,99991.45
2022-12-31T18:52:19.876Z,99992.91
2022-12-31T18:54:46.737Z,99984.48
2022-12-31T18:57:15.194Z,99989.54
2022-12-31T18:59:42.413Z,99981.57
2022-12-31T19:02:16.735Z,99985.07
2022-12-31T19:04:43.266Z,99987.45
2022-12-31T19:07:09.837Z,99991.56
2022-12-31T19:09:58.084Z,99986.79
2022-12-31T19:12:23.033Z,99985.99
2022-12-31T19:14:49.427Z,99997.23
2022-12-31T19:17:15.967Z,99998.62
2022-12-31T19:19:42.616Z,99996.91
2022-12-31T19:22:15.275Z,99992.04
2022-12-31T19:24:41.922Z,99991.66
2022-12-31T19:27:09.648Z,99992.63
2022-12-31T19:29:36.139Z,99988.13
2022-12-31T19:32:02.690Z,100001.09
2022-12-31T19:34:29.302Z,100006.21
2022-12-31T19:36:55.847Z,100010.84
2022-12-31T19:39:22.316Z,100010.65
2022-12-31T19:41:54.797Z,100003.61
2022-12-31T19:44:25.668Z,100009.33
2022-12-31T19:46:52.232Z,100013.16
2022-12-31T19:49:18.801Z,100016.60
2022-12-31T19:51:45.264Z,100019.55
2022-12-31T19:54:14.785Z,100028.91
2022-12-31T19:56:41.607Z,100023.25
2022-12-31T19:59:10.365Z,100013.91
2022-12-31T20:01:37.473Z,100020.52
2022-12-31T20:04:04.288Z,100022.81
2022-12-31T20:06:30.872Z,100021.71
2022-12-31T20:08:57.278Z,100015.35
2022-12-31T20:11:24.409Z,100021.06
2022-12-31T20:13:52.611Z,100027.04
2022-12-31T20:16:22.687Z,100038.45
2022-12-31T20:18:50.466Z,100043.27
2022-12-31T20:21:20.838Z,100032.33
2022-12-31T20:23:48.732Z,100034.45
2022-12-31T20:26:15.889Z,100039.60
2022-12-31T20:28:42.376Z,100035.77
2022-12-31T20:31:11.509Z,100048.23
2022-12-31T20:33:38.248Z,100046.46
2022-12-31T20:36:07.010Z,100036.71
2022-12-31T20:38:33.610Z,100038.33
2022-12-31T20:41:08.620Z,100047.66
2022-12-31T20:43:36.288Z,100052.45
2022-12-31T20:46:20.704Z,100057.34
2022-12-31T20:48:48.878Z,100053.38
2022-12-31T20:51:17.213Z,100053.81
2022-12-31T20:53:49.311Z,100056.78
2022-12-31T20:56:16.669Z,100064.67
2022-12-31T20:58:43.624Z,100067.75
2022-12-31T21:01:11.080Z,100059.72
2022-12-31T21:06:26.309Z,100073.46
2022-12-31T21:08:56.443Z,100072.58
2022-12-31T21:11:41.619Z,100074.42
2022-12-31T21:14:08.452Z,100078.70
2022-12-31T21:16:35.031Z,100079.41
2022-12-31T21:19:01.735Z,100077.38
2022-12-31T21:21:28.274Z,100082.36
2022-12-31T21:23:54.771Z,100085.27
2022-12-31T21:26:21.257Z,100096.30
2022-12-31T21:28:47.711Z,100087.11
2022-12-31T21:31:14.890Z,100087.20
2022-12-31T21:33:46.595Z,100084.27
2022-12-31T21:36:13.793Z,100088.78
2022-12-31T21:38:40.524Z,100080.65
2022-12-31T21:41:08.901Z,100086.02
2022-12-31T21:43:35.378Z,100093.50
2022-12-31T21:46:07.445Z,100096.13
2022-12-31T21:48:34.058Z,100105.55
2022-12-31T21:51:13.237Z,100107.50
2022-12-31T21:53:40.238Z,100104.88
2022-12-31T21:56:11.233Z,100110.14
2022-12-31T21:58:43.142Z,100113.02
2022-12-31T22:01:40.216Z,100113.70
2022-12-31T22:04:17.217Z,100120.35
2022-12-31T22:06:54.473Z,100112.66
2022-12-31T22:09:20.959Z,100119.96
2022-12-31T22:11:47.691Z,100118.77
2022-12-31T22:14:14.105Z,100117.61
2022-12-31T22:16:40.555Z,100124.70
2022-12-31T22:19:07.066Z,100118.08
2022-12-31T22:21:33.561Z,100119.08
2022-12-31T22:24:00.065Z,100124.31
2022-12-31T22:26:28.919Z,100130.40
2022-12-31T22:28:59.573Z,100132.11
2022-12-31T22:31:30.042Z,100126.45
2022-12-31T22:33:58.237Z,100137.73
2022-12-31T22:36:24.878Z,100150.41
2022-12-31T22:38:57.201Z,100161.31
2022-12-31T22:41:25.521Z,100164.04
2022-12-31T22:44:02.716Z,100162.84
2022-12-31T22:46:29.909Z,100168.59
2022-12-31T22:48:58.318Z,100185.79
2022-12-31T22:51:26.342Z,100173.71
2022-12-31T22:53:54.816Z,100184.39
2022-12-31T22:56:21.486Z,100194.25
2022-12-31T22:58:48.396Z,100186.71
2022-12-31T23:01:20.575Z,100180.77
2022-12-31T23:03:48.695Z,100182.27
2022-12-31T23:06:15.978Z,100193.11
2022-12-31T23:09:02.427Z,100192.52
2022-12-31T23:11:29.890Z,100223.05
2022-12-31T23:14:14.951Z,100200.48
2022-12-31T23:16:59.926Z,100197.26
2022-12-31T23:20:05.100Z,100192.42
2022-12-31T23:22:50.300Z,100197.39
2022-12-31T23:25:16.942Z,100195.31
2022-12-31T23:27:43.479Z,100210.83
2022-12-31T23:30:11.102Z,100204.77
2022-12-31T23:32:37.675Z,100214.77
2022-12-31T23:35:09.653Z,100195.27
2022-12-31T23:37:36.586Z,100189.55
2022-12-31T23:40:03.100Z,100190.73
2022-12-31T23:42:29.560Z,100197.00
2022-12-31T23:44:56.025Z,100194.87
2022-12-31T23:47:22.618Z,100189.09
2022-12-31T23:49:49.068Z,100182.34
2022-12-31T23:52:15.505Z,100182.23
2022-12-31T23:54:41.982Z,100195.15
2022-12-31T23:57:08.692Z,100197.85
2022-12-31T23:59:35.292Z,100179.23
